Goodland, Florida
Current Conditions -  °F | °C
As of 12:55 AM on Saturday 20 Dec 2014 (Local Time) from KMKY Reporting Station
Clear Clear  
Wind Chill: 59°   Ceiling: Unl
Heat Index: 59°   Visibility: 10mi
Dew Point: 54°   Wind: 3mph
Humidity: 82%   Direction: 50°NE
Pressure: 30.06"   Gusts: NA
Location:  25.92°N, 81.65°W
Report Text: KMKY 200555Z AUTO 05003KT 10SM CLR 15/12 A3006 RMK AO1 10190 20140 402500110 57003
Loading
Personal Weather Stations






























Interactive Weather Map New forecast layout! Learn more

10-Day Weather Forecast

Advertisements
Track Severe Weather on mobile